Time;durP1;ratioP1;P1;durP2;ratioP2;P2;SDS_P1;SDS_P2;PMS_P1;PMS_P2;Temp;Humidity;BMP_temperature;BMP_pressure;BME280_temperature;BME280_humidity;BME280_pressure;Samples;Min_cycle;Max_cycle;Signal;HPM_P1;HPM_P2
2023/06/08 00:02:00;;;;;;;22.85;9.45;;;12.10;99.90;;;;;;5009026;28;20054;-69
2023/06/08 00:04:30;;;;;;;22.92;10.35;;;12.10;99.90;;;;;;4963460;28;208700;-69
2023/06/08 00:06:57;;;;;;;22.60;10.32;;;12.20;99.90;;;;;;4987924;28;20050;-69
2023/06/08 00:09:24;;;;;;;24.55;9.95;;;12.10;99.90;;;;;;4949611;28;208230;-68
2023/06/08 00:11:52;;;;;;;20.73;10.75;;;12.10;99.90;;;;;;4992880;28;20047;-68
2023/06/08 00:14:19;;;;;;;21.48;10.35;;;12.00;99.90;;;;;;4955608;28;209331;-68
2023/06/08 00:16:48;;;;;;;23.25;9.88;;;11.90;99.90;;;;;;5020205;28;20422;-68
2023/06/08 00:19:15;;;;;;;20.95;9.85;;;12.00;99.90;;;;;;4964731;28;209111;-69
2023/06/08 00:21:42;;;;;;;25.42;10.43;;;12.00;99.90;;;;;;5009261;28;20120;-69
2023/06/08 00:24:10;;;;;;;20.67;9.10;;;12.00;99.90;;;;;;4950863;28;229785;-69
2023/06/08 00:26:36;;;;;;;22.13;9.95;;;12.00;99.90;;;;;;4990827;28;20054;-69
2023/06/08 00:29:02;;;;;;;24.13;10.05;;;12.00;99.90;;;;;;4954422;28;209078;-69
2023/06/08 00:31:31;;;;;;;21.10;8.63;;;12.10;99.90;;;;;;5019511;28;20542;-69
2023/06/08 00:33:57;;;;;;;21.75;9.10;;;12.00;99.90;;;;;;4954858;28;227800;-69
2023/06/08 00:36:23;;;;;;;24.25;9.35;;;12.00;99.90;;;;;;5022225;28;20495;-69
2023/06/08 00:38:49;;;;;;;26.50;9.50;;;12.00;99.90;;;;;;4960157;28;213522;-68
2023/06/08 00:41:16;;;;;;;21.70;9.38;;;12.00;99.90;;;;;;5016704;28;20140;-68
2023/06/08 00:43:45;;;;;;;22.05;9.00;;;11.90;99.90;;;;;;4964236;28;223366;-69
2023/06/08 00:46:16;;;;;;;21.17;9.25;;;12.00;99.90;;;;;;5031669;28;20538;-69
2023/06/08 00:48:43;;;;;;;21.38;9.13;;;12.00;99.90;;;;;;4963421;28;208969;-69
2023/06/08 00:51:11;;;;;;;23.50;9.55;;;12.00;99.90;;;;;;5010217;28;20145;-68
2023/06/08 00:53:37;;;;;;;23.73;10.27;;;12.00;99.90;;;;;;4972470;28;208272;-68
2023/06/08 00:56:05;;;;;;;31.98;11.10;;;12.00;99.90;;;;;;4966121;28;20054;-68
2023/06/08 00:58:33;;;;;;;27.23;10.30;;;12.00;99.90;;;;;;4933602;28;208612;-68
2023/06/08 01:01:01;;;;;;;29.17;11.38;;;12.00;99.90;;;;;;4986453;28;20058;-69
2023/06/08 01:03:35;;;;;;;23.73;11.23;;;12.00;99.90;;;;;;4932606;28;227462;-70
2023/06/08 01:06:07;;;;;;;26.60;11.50;;;12.00;99.90;;;;;;5004199;28;20063;-69
2023/06/08 01:08:52;;;;;;;27.80;12.02;;;12.00;99.90;;;;;;4945535;28;207338;-69
2023/06/08 01:11:31;;;;;;;26.88;10.82;;;12.00;99.90;;;;;;5007941;28;20062;-69
2023/06/08 01:14:16;;;;;;;25.92;10.93;;;12.00;99.90;;;;;;4936948;28;206161;-68
2023/06/08 01:16:51;;;;;;;24.83;10.75;;;12.00;99.90;;;;;;5005983;28;20057;-70
2023/06/08 01:19:28;;;;;;;24.85;10.65;;;12.00;99.90;;;;;;4953769;28;217405;-68
2023/06/08 01:22:29;;;;;;;24.27;11.10;;;12.00;99.90;;;;;;5001975;28;20524;-68
2023/06/08 01:24:56;;;;;;;26.80;10.48;;;12.00;99.90;;;;;;4927311;28;222961;-69
2023/06/08 01:27:26;;;;;;;24.75;10.18;;;11.90;99.90;;;;;;5036160;28;20046;-70
2023/06/08 01:29:52;;;;;;;26.73;10.75;;;11.90;99.90;;;;;;4972436;28;208042;-68
2023/06/08 01:32:19;;;;;;;23.10;10.98;;;11.90;99.90;;;;;;5009688;28;20050;-69
2023/06/08 01:34:46;;;;;;;23.85;10.48;;;11.90;99.90;;;;;;4984525;28;210502;-70
2023/06/08 01:37:33;;;;;;;25.02;10.88;;;11.90;99.90;;;;;;4990471;28;20408;-69
2023/06/08 01:40:11;;;;;;;28.13;12.15;;;11.90;99.90;;;;;;4977935;28;208815;-70
2023/06/08 01:42:43;;;;;;;26.10;11.30;;;11.90;99.90;;;;;;5026310;28;20069;-69
2023/06/08 01:45:16;;;;;;;24.00;12.10;;;11.90;99.90;;;;;;4965963;28;218667;-69
2023/06/08 01:48:03;;;;;;;24.95;12.35;;;11.90;99.90;;;;;;4991145;28;20053;-68
2023/06/08 01:50:32;;;;;;;24.17;12.05;;;11.90;99.90;;;;;;4967100;28;209380;-69
2023/06/08 01:52:58;;;;;;;26.52;12.57;;;11.90;99.90;;;;;;4988143;28;20054;-70
2023/06/08 01:55:25;;;;;;;26.75;12.35;;;11.90;99.90;;;;;;4952029;28;209292;-69
2023/06/08 01:57:51;;;;;;;25.15;12.68;;;11.90;99.90;;;;;;5038963;28;20509;-69
2023/06/08 02:00:19;;;;;;;31.17;12.32;;;11.90;99.90;;;;;;4974304;28;209093;-68
2023/06/08 02:02:45;;;;;;;25.73;11.85;;;11.90;99.90;;;;;;5023557;28;20049;-68
2023/06/08 02:05:13;;;;;;;26.55;13.05;;;11.90;99.90;;;;;;4975542;28;212306;-69
2023/06/08 02:07:40;;;;;;;25.33;12.32;;;11.90;99.90;;;;;;5040882;28;20061;-69
2023/06/08 02:10:11;;;;;;;26.40;12.23;;;11.90;99.90;;;;;;4967024;28;212031;-68
2023/06/08 02:12:38;;;;;;;28.38;13.73;;;11.90;99.90;;;;;;5009213;28;20060;-69
2023/06/08 02:15:05;;;;;;;26.00;12.05;;;12.00;99.90;;;;;;4963601;28;208756;-69
2023/06/08 02:17:33;;;;;;;24.92;11.98;;;12.00;99.90;;;;;;5021592;28;20051;-69
2023/06/08 02:20:09;;;;;;;28.40;12.15;;;12.00;99.90;;;;;;4973926;28;211109;-69
2023/06/08 02:22:40;;;;;;;22.55;11.68;;;12.00;99.90;;;;;;4986419;28;20058;-68
2023/06/08 02:25:08;;;;;;;29.00;10.82;;;11.90;99.90;;;;;;4954748;28;217524;-68
2023/06/08 02:27:36;;;;;;;26.42;11.77;;;12.00;99.90;;;;;;5006714;28;20057;-69
2023/06/08 02:30:07;;;;;;;28.38;11.98;;;12.00;99.90;;;;;;4953492;28;193754;-69
2023/06/08 02:32:33;;;;;;;23.98;11.02;;;12.00;99.90;;;;;;4989437;28;20050;-69
2023/06/08 02:35:03;;;;;;;22.50;10.68;;;12.00;99.90;;;;;;4964166;28;210253;-69
2023/06/08 02:37:30;;;;;;;22.88;11.20;;;12.10;99.90;;;;;;4989409;28;20062;-69
2023/06/08 02:39:56;;;;;;;25.48;10.55;;;12.10;99.90;;;;;;4968803;28;210727;-69
2023/06/08 02:42:23;;;;;;;26.40;10.38;;;12.10;99.90;;;;;;4990616;28;20056;-69
2023/06/08 02:44:49;;;;;;;24.48;10.05;;;12.10;99.90;;;;;;4941806;28;230775;-68
2023/06/08 02:47:16;;;;;;;24.05;10.23;;;12.10;99.90;;;;;;5013915;28;20447;-68
2023/06/08 02:49:43;;;;;;;26.67;9.85;;;12.10;99.90;;;;;;4931283;28;208079;-69
2023/06/08 02:52:09;;;;;;;23.70;10.25;;;12.20;99.90;;;;;;4984802;28;20066;-69
2023/06/08 02:54:36;;;;;;;24.52;9.57;;;12.20;99.90;;;;;;4945253;28;206255;-69
2023/06/08 02:57:02;;;;;;;23.95;9.32;;;12.20;99.90;;;;;;4996530;28;20062;-69
2023/06/08 02:59:31;;;;;;;24.20;10.35;;;12.20;99.90;;;;;;4951039;28;211613;-69
2023/06/08 03:01:57;;;;;;;25.35;10.85;;;12.20;99.90;;;;;;4990032;28;20061;-68
2023/06/08 03:04:25;;;;;;;21.17;9.73;;;12.30;99.90;;;;;;4967972;28;99616;-69
2023/06/08 03:06:53;;;;;;;23.98;9.57;;;12.30;99.90;;;;;;4996614;28;20054;-68
2023/06/08 03:09:21;;;;;;;25.05;10.65;;;12.30;99.90;;;;;;4954814;28;208518;-69
2023/06/08 03:11:48;;;;;;;22.58;9.90;;;12.30;99.90;;;;;;5001055;28;20067;-69
2023/06/08 03:14:16;;;;;;;27.75;9.45;;;12.30;99.90;;;;;;4941691;28;229144;-70
2023/06/08 03:16:44;;;;;;;26.45;10.80;;;12.30;99.90;;;;;;5003841;28;20053;-69
2023/06/08 03:19:10;;;;;;;21.48;9.82;;;12.40;99.90;;;;;;4956747;28;206738;-69
2023/06/08 03:21:36;;;;;;;21.52;9.65;;;12.40;99.90;;;;;;4986179;28;20050;-68
2023/06/08 03:24:03;;;;;;;26.48;10.35;;;12.40;99.90;;;;;;4950564;28;224487;-68
2023/06/08 03:26:29;;;;;;;26.73;10.77;;;12.40;99.90;;;;;;5002927;28;20553;-69
2023/06/08 03:28:55;;;;;;;26.15;10.55;;;12.40;99.90;;;;;;4957260;28;208525;-69
2023/06/08 03:31:22;;;;;;;27.70;10.27;;;12.40;99.90;;;;;;5005576;28;20071;-69
2023/06/08 03:33:52;;;;;;;24.20;10.52;;;12.30;99.90;;;;;;4954443;28;218964;-69
2023/06/08 03:36:18;;;;;;;25.65;9.77;;;12.40;99.90;;;;;;5016508;28;20415;-69
2023/06/08 03:38:44;;;;;;;24.63;9.90;;;12.40;99.90;;;;;;4968924;28;209919;-68
2023/06/08 03:41:10;;;;;;;24.33;10.13;;;12.40;99.90;;;;;;4982758;28;20046;-67
2023/06/08 03:43:36;;;;;;;21.73;9.35;;;12.40;99.90;;;;;;4950372;28;271236;-69
2023/06/08 03:46:02;;;;;;;22.30;9.57;;;12.40;99.90;;;;;;4997049;28;20059;-70
2023/06/08 03:48:29;;;;;;;24.17;10.35;;;12.40;99.90;;;;;;4930242;28;210777;-69
2023/06/08 03:50:55;;;;;;;22.63;10.43;;;12.40;99.90;;;;;;4997783;28;20050;-68
2023/06/08 03:53:21;;;;;;;24.45;10.68;;;12.40;99.90;;;;;;4918781;28;241015;-69
2023/06/08 03:55:49;;;;;;;30.63;11.60;;;12.40;99.90;;;;;;5003535;28;20417;-69
2023/06/08 03:58:16;;;;;;;28.60;10.83;;;12.40;99.90;;;;;;4952885;28;209902;-69
2023/06/08 04:00:42;;;;;;;21.80;10.10;;;12.40;99.90;;;;;;4982417;28;20615;-68
2023/06/08 04:03:09;;;;;;;23.15;10.52;;;12.40;99.90;;;;;;4988458;28;206582;-69
2023/06/08 04:05:36;;;;;;;23.42;11.00;;;12.40;99.90;;;;;;4903930;28;1993650;-69
2023/06/08 04:08:03;;;;;;;24.70;10.82;;;12.40;99.90;;;;;;5010272;28;20057;-69
2023/06/08 04:10:29;;;;;;;25.50;10.68;;;12.50;99.90;;;;;;4960359;28;261317;-70
2023/06/08 04:12:55;;;;;;;24.98;11.05;;;12.50;99.90;;;;;;5009309;28;20075;-68
2023/06/08 04:15:22;;;;;;;25.60;11.27;;;12.50;99.90;;;;;;4976532;28;205241;-69
2023/06/08 04:17:49;;;;;;;29.17;12.55;;;12.50;99.90;;;;;;5009847;28;20048;-69
2023/06/08 04:20:15;;;;;;;25.75;10.75;;;12.50;99.90;;;;;;4972083;28;209755;-69
2023/06/08 04:22:41;;;;;;;22.83;10.80;;;12.50;99.90;;;;;;5009672;28;20451;-69
2023/06/08 04:25:08;;;;;;;23.73;10.23;;;12.50;99.90;;;;;;4977384;28;259114;-68
2023/06/08 04:27:35;;;;;;;26.33;10.60;;;12.60;99.90;;;;;;4990659;28;20050;-69
2023/06/08 04:30:02;;;;;;;22.83;10.02;;;12.60;99.90;;;;;;4987295;28;209229;-69
2023/06/08 04:32:29;;;;;;;20.65;9.63;;;12.60;99.90;;;;;;5003548;28;20060;-69
2023/06/08 04:34:55;;;;;;;26.67;10.20;;;12.70;99.90;;;;;;4972359;28;208765;-69
2023/06/08 04:37:22;;;;;;;18.60;8.68;;;12.70;99.90;;;;;;4972793;28;20634;-69
2023/06/08 04:39:48;;;;;;;23.15;9.20;;;12.60;99.90;;;;;;4961444;28;208887;-69
2023/06/08 04:42:17;;;;;;;25.77;8.93;;;12.70;99.90;;;;;;4991479;28;20518;-69
2023/06/08 04:44:46;;;;;;;24.80;8.77;;;12.70;99.90;;;;;;4939576;28;287166;-70
2023/06/08 04:47:14;;;;;;;23.23;8.73;;;12.70;99.90;;;;;;4981634;28;20134;-69
2023/06/08 04:49:40;;;;;;;24.90;8.85;;;12.70;99.90;;;;;;4946763;28;208989;-69
2023/06/08 04:52:09;;;;;;;21.20;8.73;;;12.70;99.90;;;;;;4986859;28;20057;-70
2023/06/08 04:54:46;;;;;;;17.70;8.45;;;12.70;99.90;;;;;;4935052;28;210710;-68
2023/06/08 04:57:17;;;;;;;21.48;8.90;;;12.70;99.90;;;;;;5034903;28;20062;-68
2023/06/08 04:59:43;;;;;;;21.70;8.43;;;12.80;99.90;;;;;;4976239;28;213382;-69
2023/06/08 05:02:12;;;;;;;19.10;8.57;;;12.90;99.90;;;;;;5000354;28;20085;-70
2023/06/08 05:04:38;;;;;;;27.17;9.35;;;13.00;99.90;;;;;;4953300;28;208608;-69
2023/06/08 05:07:05;;;;;;;22.83;8.73;;;13.10;99.90;;;;;;5004240;28;20431;-69
2023/06/08 05:09:31;;;;;;;23.60;8.20;;;13.10;99.90;;;;;;4962931;28;209015;-68
2023/06/08 05:11:57;;;;;;;22.25;9.02;;;13.10;99.90;;;;;;5007980;28;20062;-69
2023/06/08 05:14:23;;;;;;;22.90;8.18;;;13.10;99.90;;;;;;4970967;28;148721;-68
2023/06/08 05:16:50;;;;;;;20.83;8.35;;;13.20;99.90;;;;;;4994602;28;20116;-70
2023/06/08 05:19:16;;;;;;;24.17;8.80;;;13.30;99.90;;;;;;4947554;28;206384;-70
2023/06/08 05:21:42;;;;;;;20.30;7.65;;;13.40;99.90;;;;;;5015298;28;20073;-70
2023/06/08 05:24:08;;;;;;;22.85;8.52;;;13.40;99.90;;;;;;4956716;28;272003;-69
2023/06/08 05:26:34;;;;;;;18.98;7.75;;;13.40;99.90;;;;;;5007213;28;20055;-69
2023/06/08 05:29:01;;;;;;;22.55;8.68;;;13.40;99.90;;;;;;4944528;28;213661;-69
2023/06/08 05:31:27;;;;;;;23.80;8.25;;;13.30;99.90;;;;;;5013172;28;20427;-70
2023/06/08 05:33:53;;;;;;;23.27;7.95;;;13.40;99.90;;;;;;4953146;28;208391;-69
2023/06/08 05:36:19;;;;;;;18.98;7.53;;;13.40;99.90;;;;;;4982041;28;20054;-70
2023/06/08 05:38:46;;;;;;;22.88;8.00;;;13.50;99.90;;;;;;4940253;28;207054;-70
2023/06/08 05:41:12;;;;;;;22.42;7.78;;;13.60;99.90;;;;;;4996810;28;20061;-69
2023/06/08 05:43:38;;;;;;;20.90;7.55;;;13.60;99.90;;;;;;4929895;28;215817;-70
2023/06/08 05:46:04;;;;;;;25.02;8.15;;;13.70;99.90;;;;;;4962608;28;20065;-70
2023/06/08 05:48:30;;;;;;;21.60;8.32;;;13.80;99.90;;;;;;4928572;28;219174;-70
2023/06/08 05:50:56;;;;;;;22.73;8.30;;;13.90;99.90;;;;;;4998111;28;20073;-70
2023/06/08 05:53:22;;;;;;;24.58;7.78;;;13.90;99.90;;;;;;4934884;28;223749;-70
2023/06/08 05:55:49;;;;;;;19.83;7.63;;;14.00;99.90;;;;;;5015346;28;20072;-70
2023/06/08 05:58:16;;;;;;;21.63;7.30;;;14.20;99.90;;;;;;4960391;28;208357;-69
2023/06/08 06:00:43;;;;;;;20.50;7.18;;;14.10;99.90;;;;;;5005092;28;20426;-70
2023/06/08 06:03:09;;;;;;;20.10;6.90;;;14.50;99.90;;;;;;4980573;28;208843;-68
2023/06/08 06:05:36;;;;;;;20.98;7.22;;;14.80;99.90;;;;;;4971854;28;20062;-69
2023/06/08 06:08:02;;;;;;;19.38;6.78;;;14.80;99.90;;;;;;5004728;28;20522;-69
2023/06/08 06:10:28;;;;;;;17.65;6.47;;;15.00;99.90;;;;;;4958079;28;214761;-71
2023/06/08 06:12:54;;;;;;;16.58;6.28;;;15.30;99.90;;;;;;4969997;28;20058;-69
2023/06/08 06:15:20;;;;;;;14.23;5.75;;;15.60;99.90;;;;;;4957031;28;208680;-69
2023/06/08 06:17:46;;;;;;;17.65;6.07;;;15.70;99.90;;;;;;4988699;28;20054;-70
2023/06/08 06:20:16;;;;;;;17.75;6.35;;;15.60;99.90;;;;;;4958874;28;208953;-69
2023/06/08 06:22:42;;;;;;;17.40;5.55;;;15.50;99.90;;;;;;4987175;28;20057;-70
2023/06/08 06:25:11;;;;;;;20.55;5.93;;;15.40;99.90;;;;;;4951692;28;163896;-69
2023/06/08 06:27:37;;;;;;;17.88;5.93;;;15.50;99.90;;;;;;5024277;28;20044;-70
2023/06/08 06:30:04;;;;;;;22.15;6.18;;;15.60;99.90;;;;;;4961152;28;177553;-70
2023/06/08 06:32:30;;;;;;;16.83;5.43;;;15.60;99.90;;;;;;4994466;28;20054;-70
2023/06/08 06:34:56;;;;;;;18.83;5.53;;;15.90;99.90;;;;;;4942301;28;122277;-70
2023/06/08 06:37:22;;;;;;;17.63;5.45;;;16.10;99.90;;;;;;4990151;28;20312;-71
2023/06/08 06:39:48;;;;;;;23.35;6.25;;;16.20;99.90;;;;;;4954700;28;208668;-70
2023/06/08 06:42:15;;;;;;;16.38;4.85;;;16.30;99.90;;;;;;4993570;28;20487;-72
2023/06/08 06:44:41;;;;;;;18.63;5.10;;;16.50;99.90;;;;;;4952547;28;262464;-68
2023/06/08 06:47:07;;;;;;;20.23;5.43;;;16.50;99.90;;;;;;4974104;28;20047;-69
2023/06/08 06:49:33;;;;;;;21.33;5.60;;;16.40;99.90;;;;;;4930125;28;136020;-70
2023/06/08 06:52:00;;;;;;;17.67;5.60;;;16.60;99.90;;;;;;4982704;28;20494;-70
2023/06/08 06:54:26;;;;;;;17.60;5.40;;;16.80;99.90;;;;;;4941787;28;213471;-70
2023/06/08 06:56:52;;;;;;;18.33;5.28;;;17.00;99.90;;;;;;4996695;28;20065;-69
2023/06/08 06:59:20;;;;;;;19.92;5.50;;;17.10;99.90;;;;;;4945919;28;153170;-69
2023/06/08 07:01:46;;;;;;;16.85;5.32;;;17.40;99.90;;;;;;4994620;28;20527;-70
2023/06/08 07:04:15;;;;;;;20.85;5.32;;;17.40;99.90;;;;;;4927153;28;267401;-69
2023/06/08 07:06:42;;;;;;;16.95;5.35;;;17.60;99.90;;;;;;4995041;28;20057;-70
2023/06/08 07:09:10;;;;;;;18.88;5.47;;;17.80;99.90;;;;;;4941341;28;208083;-70
2023/06/08 07:11:36;;;;;;;17.02;4.88;;;17.90;99.90;;;;;;5004346;28;20051;-70
2023/06/08 07:14:02;;;;;;;16.00;5.28;;;17.70;99.90;;;;;;4982516;28;155133;-69
2023/06/08 07:16:28;;;;;;;17.70;5.00;;;17.60;99.90;;;;;;4997187;28;20061;-71
2023/06/08 07:18:54;;;;;;;16.05;5.38;;;17.90;99.90;;;;;;4949756;28;210068;-69
2023/06/08 07:21:23;;;;;;;15.57;4.80;;;17.90;99.90;;;;;;5012667;28;20068;-70
2023/06/08 07:23:50;;;;;;;16.30;4.88;;;17.90;99.90;;;;;;4986497;28;86593;-70
2023/06/08 07:26:16;;;;;;;16.30;4.80;;;18.10;99.90;;;;;;5028733;28;20061;-70
2023/06/08 07:28:42;;;;;;;16.30;4.93;;;18.20;99.90;;;;;;4984684;28;206647;-70
2023/06/08 07:31:08;;;;;;;14.93;4.82;;;18.50;99.90;;;;;;5007669;28;20439;-70
2023/06/08 07:33:35;;;;;;;14.65;5.13;;;19.10;99.90;;;;;;4945465;28;193906;-70
2023/06/08 07:36:01;;;;;;;19.08;5.00;;;19.40;99.90;;;;;;4999371;28;20062;-69
2023/06/08 07:38:30;;;;;;;18.35;5.30;;;19.80;99.90;;;;;;4942625;28;208876;-70
2023/06/08 07:40:56;;;;;;;17.73;5.40;;;19.80;99.90;;;;;;4998299;28;20428;-70
2023/06/08 07:43:22;;;;;;;16.33;4.20;;;20.20;99.90;;;;;;4947452;28;209268;-71
2023/06/08 07:45:48;;;;;;;18.40;4.95;;;20.40;99.30;;;;;;5013815;28;20062;-70
2023/06/08 07:48:14;;;;;;;19.58;5.20;;;20.40;99.00;;;;;;4954163;28;208451;-71
2023/06/08 07:50:40;;;;;;;15.20;4.93;;;20.60;98.90;;;;;;4977386;28;20038;-71
2023/06/08 07:53:06;;;;;;;17.05;4.55;;;20.90;98.40;;;;;;4973415;28;208698;-70
2023/06/08 07:55:32;;;;;;;16.40;4.38;;;21.10;98.60;;;;;;4945616;28;20057;-70
2023/06/08 07:57:59;;;;;;;13.75;4.80;;;21.10;98.20;;;;;;4988937;28;20520;-70
2023/06/08 08:00:31;;;;;;;15.05;4.50;;;21.20;98.00;;;;;;4971368;28;206810;-70
2023/06/08 08:02:57;;;;;;;16.55;4.95;;;21.10;98.00;;;;;;4990481;28;20058;-70
2023/06/08 08:05:23;;;;;;;16.30;4.95;;;21.40;97.80;;;;;;4951748;28;447988;-70
2023/06/08 08:07:49;;;;;;;21.67;5.00;;;21.50;97.40;;;;;;5010273;28;20506;-71
2023/06/08 08:10:15;;;;;;;15.60;4.28;;;21.20;97.10;;;;;;4971003;28;194828;-71
2023/06/08 08:12:43;;;;;;;16.60;4.78;;;21.30;97.50;;;;;;4988666;28;20508;-71
2023/06/08 08:15:10;;;;;;;16.42;4.60;;;21.20;97.50;;;;;;4959506;28;236832;-69
2023/06/08 08:17:40;;;;;;;16.27;4.47;;;21.30;97.30;;;;;;5009776;28;20613;-71
2023/06/08 08:20:07;;;;;;;15.75;4.43;;;21.40;97.10;;;;;;4971651;28;212622;-72
2023/06/08 08:22:36;;;;;;;14.68;4.63;;;21.70;97.30;;;;;;5003555;28;20050;-71
2023/06/08 08:25:02;;;;;;;13.85;4.47;;;21.90;96.70;;;;;;4979536;28;207275;-71
2023/06/08 08:27:31;;;;;;;13.45;4.00;;;22.10;96.40;;;;;;4990284;28;20050;-71
2023/06/08 08:29:57;;;;;;;16.50;4.38;;;22.40;96.20;;;;;;4964725;28;231390;-71
2023/06/08 08:32:23;;;;;;;16.67;4.20;;;22.60;96.30;;;;;;4983714;28;20065;-72
2023/06/08 08:34:50;;;;;;;16.45;4.70;;;23.00;95.60;;;;;;4964742;28;197393;-72
2023/06/08 08:37:17;;;;;;;13.50;4.50;;;23.10;95.70;;;;;;4989586;28;20529;-71
2023/06/08 08:39:43;;;;;;;14.82;4.47;;;23.40;94.60;;;;;;4968611;28;232872;-71
2023/06/08 08:42:13;;;;;;;14.85;4.57;;;23.40;95.30;;;;;;5008548;28;20062;-71
2023/06/08 08:44:41;;;;;;;17.13;4.43;;;23.60;94.70;;;;;;4953236;28;252629;-71
2023/06/08 08:47:13;;;;;;;;;;;23.90;94.50;;;;;;4982863;28;20499;-71
2023/06/08 08:49:44;;;;;;;16.38;4.70;;;23.90;93.30;;;;;;4967145;28;156563;-71
2023/06/08 08:52:10;;;;;;;16.95;4.88;;;24.00;94.30;;;;;;4960719;28;20050;-71
2023/06/08 08:54:38;;;;;;;15.57;4.60;;;24.30;94.10;;;;;;4936224;28;246086;-72
2023/06/08 08:57:09;;;;;;;17.90;4.65;;;24.40;93.70;;;;;;4991065;28;20526;-71
2023/06/08 08:59:40;;;;;;;14.45;4.45;;;24.30;93.70;;;;;;4976692;28;151087;-72
2023/06/08 09:02:09;;;;;;;17.50;4.88;;;24.30;94.00;;;;;;4986787;28;20462;-70
2023/06/08 09:04:35;;;;;;;15.65;4.65;;;24.70;93.30;;;;;;4947426;28;208616;-72
2023/06/08 09:07:02;;;;;;;15.13;4.70;;;24.60;93.60;;;;;;5006792;28;20046;-71
2023/06/08 09:09:30;;;;;;;17.27;4.63;;;24.40;92.80;;;;;;4968070;28;209671;-71
2023/06/08 09:12:04;;;;;;;17.40;4.75;;;24.30;93.40;;;;;;5014664;28;20044;-71
2023/06/08 09:14:30;;;;;;;14.25;4.68;;;24.50;92.60;;;;;;4964206;28;217338;-71
2023/06/08 09:16:59;;;;;;;15.85;4.95;;;24.70;92.80;;;;;;4968888;28;20050;-71
2023/06/08 09:19:25;;;;;;;13.55;4.07;;;25.10;92.70;;;;;;4953210;28;233651;-72
2023/06/08 09:21:52;;;;;;;17.27;4.88;;;25.60;92.00;;;;;;4986626;28;20065;-70
2023/06/08 09:24:20;;;;;;;18.13;5.22;;;25.30;92.00;;;;;;4967389;28;178949;-70
2023/06/08 09:26:55;;;;;;;18.63;5.00;;;25.20;92.50;;;;;;5010292;28;20077;-71
2023/06/08 09:29:40;;;;;;;16.48;4.85;;;25.60;91.80;;;;;;4947305;28;180469;-71
2023/06/08 09:32:09;;;;;;;15.10;4.93;;;25.60;91.50;;;;;;4998098;28;20065;-71
2023/06/08 09:34:49;;;;;;;14.07;4.75;;;25.60;91.80;;;;;;4947106;28;221924;-71
2023/06/08 09:37:15;;;;;;;14.80;4.78;;;26.20;91.30;;;;;;4990919;28;20061;-71
2023/06/08 09:39:44;;;;;;;14.05;4.97;;;26.30;91.40;;;;;;4949356;28;205482;-71
2023/06/08 09:42:10;;;;;;;15.77;4.75;;;26.10;91.40;;;;;;5015590;28;20061;-71
2023/06/08 09:44:38;;;;;;;17.20;5.28;;;26.70;90.70;;;;;;4961461;28;133164;-71
2023/06/08 09:47:27;;;;;;;16.17;4.68;;;26.60;90.80;;;;;;5017774;28;20050;-70
2023/06/08 09:49:56;;;;;;;16.33;5.43;;;27.20;90.30;;;;;;4898149;28;1530784;-71
2023/06/08 09:52:23;;;;;;;14.30;4.85;;;27.20;90.50;;;;;;4985107;28;20055;-72
2023/06/08 09:54:51;;;;;;;13.60;4.35;;;27.20;90.30;;;;;;4940003;28;206962;-71
2023/06/08 09:57:21;;;;;;;16.85;4.72;;;27.20;90.30;;;;;;4968008;28;20054;-71
2023/06/08 10:00:14;;;;;;;13.70;4.65;;;27.30;90.10;;;;;;4961828;28;213061;-71
2023/06/08 10:03:06;;;;;;;15.27;4.72;;;27.30;89.20;;;;;;4992027;28;20054;-72
2023/06/08 10:05:35;;;;;;;14.73;4.70;;;27.20;88.30;;;;;;4917720;28;207179;-70
2023/06/08 10:08:05;;;;;;;16.92;4.70;;;27.00;89.50;;;;;;4991589;28;20058;-70
2023/06/08 10:10:39;;;;;;;16.95;5.00;;;26.80;88.90;;;;;;4980611;28;146531;-71
2023/06/08 10:13:05;;;;;;;16.23;4.88;;;26.40;88.40;;;;;;5031123;28;195142;-71
2023/06/08 10:15:32;;;;;;;14.85;4.80;;;26.40;89.10;;;;;;4958810;28;207186;-70
2023/06/08 10:17:59;;;;;;;19.40;4.90;;;26.70;88.30;;;;;;5021536;28;20057;-70
2023/06/08 10:20:27;;;;;;;13.25;4.38;;;27.20;87.90;;;;;;4965559;28;205703;-72
2023/06/08 10:22:53;;;;;;;14.65;4.60;;;27.40;87.90;;;;;;5008852;28;20466;-70
2023/06/08 10:25:20;;;;;;;13.90;4.30;;;27.60;87.90;;;;;;4935733;28;251035;-71
2023/06/08 10:27:51;;;;;;;15.60;4.72;;;27.70;86.40;;;;;;4990352;28;20062;-71
2023/06/08 10:30:29;;;;;;;13.00;4.35;;;27.10;85.60;;;;;;4961563;28;210146;-71
2023/06/08 10:33:08;;;;;;;13.77;4.10;;;27.10;85.90;;;;;;4989496;28;20054;-70
2023/06/08 10:35:35;;;;;;;14.27;4.13;;;27.20;87.10;;;;;;4977358;28;138797;-71
2023/06/08 10:38:12;;;;;;;11.75;4.15;;;27.10;86.90;;;;;;5004868;28;20073;-71
2023/06/08 10:40:42;;;;;;;15.18;4.25;;;26.90;85.30;;;;;;4976826;28;206974;-71
2023/06/08 10:43:08;;;;;;;11.15;3.88;;;26.90;86.40;;;;;;4981749;28;215543;-70
2023/06/08 10:45:39;;;;;;;13.57;4.20;;;27.30;86.90;;;;;;4963767;28;208452;-72
2023/06/08 10:48:09;;;;;;;13.23;4.43;;;27.80;86.60;;;;;;4980026;28;208366;-71
2023/06/08 10:50:37;;;;;;;13.95;4.32;;;27.90;84.50;;;;;;4964257;28;207276;-71
2023/06/08 10:53:09;;;;;;;12.90;4.10;;;27.10;84.20;;;;;;5020300;28;20089;-71
2023/06/08 10:55:36;;;;;;;15.23;4.38;;;26.80;84.60;;;;;;4924794;28;20111;-70
2023/06/08 10:58:21;;;;;;;11.48;3.75;;;26.90;85.40;;;;;;5042206;28;20061;-71
2023/06/08 11:00:52;;;;;;;13.93;4.30;;;27.20;84.90;;;;;;4959572;28;58224;-71
2023/06/08 11:03:20;;;;;;;13.65;4.07;;;27.30;85.10;;;;;;4958133;28;229379;-71
2023/06/08 11:05:53;;;;;;;13.35;3.58;;;27.70;85.60;;;;;;5021711;28;20068;-71
2023/06/08 11:08:19;;;;;;;13.30;3.80;;;27.90;84.90;;;;;;4957426;28;208172;-70
2023/06/08 11:10:55;;;;;;;10.98;3.47;;;27.70;83.10;;;;;;5002122;28;20512;-69
2023/06/08 11:13:22;;;;;;;12.00;3.80;;;27.30;83.60;;;;;;4946069;28;210218;-71
2023/06/08 11:15:48;;;;;;;14.38;4.07;;;27.40;84.50;;;;;;5008787;28;20054;-71
2023/06/08 11:18:19;;;;;;;13.73;3.78;;;27.50;84.20;;;;;;4934871;28;209507;-72
2023/06/08 11:20:45;;;;;;;12.38;4.03;;;27.50;84.30;;;;;;5020288;28;20058;-72
2023/06/08 11:23:13;;;;;;;15.43;3.70;;;27.30;84.80;;;;;;4944444;28;223326;-70
2023/06/08 11:25:39;;;;;;;12.23;3.75;;;27.20;82.90;;;;;;4995880;28;20062;-72
2023/06/08 11:28:11;;;;;;;12.75;3.53;;;27.00;84.60;;;;;;4972642;28;212513;-69
2023/06/08 11:30:40;;;;;;;11.77;3.63;;;27.20;84.20;;;;;;4933828;28;218705;-71
2023/06/08 11:33:14;;;;;;;11.25;3.55;;;27.60;84.50;;;;;;4971357;28;235551;-70
2023/06/08 11:35:40;;;;;;;12.75;4.00;;;27.10;83.70;;;;;;4932352;28;159900;-71
2023/06/08 11:38:06;;;;;;;14.30;3.63;;;26.90;84.00;;;;;;4972280;28;211722;-71
2023/06/08 11:40:34;;;;;;;12.32;3.90;;;27.40;83.90;;;;;;4971184;28;206603;-72
2023/06/08 11:43:00;;;;;;;11.45;3.70;;;27.40;83.80;;;;;;5020356;28;20432;-71
2023/06/08 11:45:30;;;;;;;15.07;3.85;;;27.30;84.90;;;;;;4990058;28;232655;-71
2023/06/08 11:48:00;;;;;;;13.43;3.83;;;27.40;84.30;;;;;;5019040;28;20041;-71
2023/06/08 11:50:26;;;;;;;12.38;3.72;;;27.40;83.50;;;;;;4945714;28;206581;-70
2023/06/08 11:52:57;;;;;;;10.95;3.80;;;27.80;83.70;;;;;;4989454;28;20077;-70
2023/06/08 11:55:25;;;;;;;12.00;3.65;;;28.10;83.90;;;;;;4954895;28;140753;-70
2023/06/08 11:57:56;;;;;;;10.57;3.50;;;27.90;83.50;;;;;;4969989;28;20050;-70
2023/06/08 12:00:27;;;;;;;10.55;3.33;;;27.80;82.80;;;;;;4959056;28;208863;-72
2023/06/08 12:02:58;;;;;;;13.90;3.95;;;28.10;84.00;;;;;;4998743;28;20508;-71
2023/06/08 12:05:25;;;;;;;11.95;3.35;;;28.40;83.20;;;;;;4965997;28;250241;-71
2023/06/08 12:08:14;;;;;;;12.57;4.20;;;28.50;83.70;;;;;;4986565;28;20062;-71
2023/06/08 12:10:42;;;;;;;11.32;3.53;;;28.30;82.40;;;;;;4946176;28;56832;-71
2023/06/08 12:13:11;;;;;;;13.95;3.53;;;27.60;83.80;;;;;;4973554;28;213460;-71
2023/06/08 12:15:42;;;;;;;10.88;3.35;;;28.00;83.70;;;;;;4961963;28;20062;-71
2023/06/08 12:18:16;;;;;;;13.40;3.72;;;27.90;82.60;;;;;;4972578;28;240705;-70
2023/06/08 12:20:44;;;;;;;14.45;4.00;;;28.10;82.80;;;;;;4970346;28;20046;-71
2023/06/08 12:23:13;;;;;;;10.35;3.28;;;27.80;82.90;;;;;;4974076;28;211722;-70
2023/06/08 12:25:43;;;;;;;12.57;3.83;;;27.70;83.30;;;;;;5023659;28;20114;-70
2023/06/08 12:28:20;;;;;;;15.02;3.80;;;27.10;83.40;;;;;;5013981;28;210023;-71
2023/06/08 12:30:46;;;;;;;12.00;3.58;;;27.30;82.70;;;;;;4982412;28;20038;-71
2023/06/08 12:33:17;;;;;;;12.40;3.55;;;27.10;83.30;;;;;;4965690;28;260740;-71
2023/06/08 12:35:49;;;;;;;12.30;3.53;;;27.70;83.90;;;;;;5008159;28;20065;-70